sensor_id;sensor_type;location;lat;lon;timestamp;P1;durP1;ratioP1;P2;durP2;ratioP2
5682;SDS011;2864;49.220;8.654;2023-02-28T00:00:23;6.27;;;3.80;;
5682;SDS011;2864;49.220;8.654;2023-02-28T00:02:49;5.23;;;4.03;;
5682;SDS011;2864;49.220;8.654;2023-02-28T00:05:16;4.13;;;3.60;;
5682;SDS011;2864;49.220;8.654;2023-02-28T00:07:44;4.77;;;3.90;;
5682;SDS011;2864;49.220;8.654;2023-02-28T00:10:11;5.40;;;3.60;;
5682;SDS011;2864;49.220;8.654;2023-02-28T00:12:38;4.90;;;3.50;;
5682;SDS011;2864;49.220;8.654;2023-02-28T00:15:08;4.20;;;3.50;;
5682;SDS011;2864;49.220;8.654;2023-02-28T00:17:35;4.70;;;3.53;;
5682;SDS011;2864;49.220;8.654;2023-02-28T00:20:01;3.87;;;3.47;;
5682;SDS011;2864;49.220;8.654;2023-02-28T00:22:37;3.60;;;3.10;;
5682;SDS011;2864;49.220;8.654;2023-02-28T00:25:08;3.57;;;3.27;;
5682;SDS011;2864;49.220;8.654;2023-02-28T00:27:35;4.50;;;3.73;;
5682;SDS011;2864;49.220;8.654;2023-02-28T00:30:02;4.33;;;3.37;;
5682;SDS011;2864;49.220;8.654;2023-02-28T00:32:28;5.83;;;4.00;;
5682;SDS011;2864;49.220;8.654;2023-02-28T00:34:54;5.17;;;3.73;;
5682;SDS011;2864;49.220;8.654;2023-02-28T00:37:20;6.17;;;3.50;;
5682;SDS011;2864;49.220;8.654;2023-02-28T00:39:46;7.87;;;4.60;;
5682;SDS011;2864;49.220;8.654;2023-02-28T00:42:12;4.93;;;3.70;;
5682;SDS011;2864;49.220;8.654;2023-02-28T00:44:38;4.77;;;3.57;;
5682;SDS011;2864;49.220;8.654;2023-02-28T00:47:04;4.47;;;3.57;;
5682;SDS011;2864;49.220;8.654;2023-02-28T00:49:30;5.63;;;4.23;;
5682;SDS011;2864;49.220;8.654;2023-02-28T00:51:56;4.60;;;3.60;;
5682;SDS011;2864;49.220;8.654;2023-02-28T00:54:22;4.47;;;3.70;;
5682;SDS011;2864;49.220;8.654;2023-02-28T00:56:48;3.57;;;3.27;;
5682;SDS011;2864;49.220;8.654;2023-02-28T00:59:15;4.47;;;3.60;;
5682;SDS011;2864;49.220;8.654;2023-02-28T01:01:42;4.63;;;4.20;;
5682;SDS011;2864;49.220;8.654;2023-02-28T01:04:08;4.00;;;3.60;;
5682;SDS011;2864;49.220;8.654;2023-02-28T01:06:34;3.80;;;3.30;;
5682;SDS011;2864;49.220;8.654;2023-02-28T01:09:01;6.20;;;3.80;;
5682;SDS011;2864;49.220;8.654;2023-02-28T01:11:27;3.90;;;3.37;;
5682;SDS011;2864;49.220;8.654;2023-02-28T01:13:53;4.70;;;4.00;;
5682;SDS011;2864;49.220;8.654;2023-02-28T01:16:19;4.53;;;3.67;;
5682;SDS011;2864;49.220;8.654;2023-02-28T01:18:45;5.13;;;3.30;;
5682;SDS011;2864;49.220;8.654;2023-02-28T01:21:12;3.87;;;3.50;;
5682;SDS011;2864;49.220;8.654;2023-02-28T01:23:40;4.93;;;3.47;;
5682;SDS011;2864;49.220;8.654;2023-02-28T01:26:07;4.13;;;3.43;;
5682;SDS011;2864;49.220;8.654;2023-02-28T01:28:33;4.30;;;3.73;;
5682;SDS011;2864;49.220;8.654;2023-02-28T01:30:59;5.93;;;3.73;;
5682;SDS011;2864;49.220;8.654;2023-02-28T01:33:26;4.13;;;3.73;;
5682;SDS011;2864;49.220;8.654;2023-02-28T01:36:02;5.73;;;3.40;;
5682;SDS011;2864;49.220;8.654;2023-02-28T01:38:28;4.00;;;3.60;;
5682;SDS011;2864;49.220;8.654;2023-02-28T01:40:54;5.33;;;3.80;;
5682;SDS011;2864;49.220;8.654;2023-02-28T01:43:25;4.87;;;3.60;;
5682;SDS011;2864;49.220;8.654;2023-02-28T01:45:53;5.87;;;4.07;;
5682;SDS011;2864;49.220;8.654;2023-02-28T01:48:21;8.67;;;4.27;;
5682;SDS011;2864;49.220;8.654;2023-02-28T01:50:48;5.00;;;3.80;;
5682;SDS011;2864;49.220;8.654;2023-02-28T01:53:16;5.40;;;3.80;;
5682;SDS011;2864;49.220;8.654;2023-02-28T01:55:45;4.83;;;3.50;;
5682;SDS011;2864;49.220;8.654;2023-02-28T01:58:12;4.27;;;3.67;;
5682;SDS011;2864;49.220;8.654;2023-02-28T02:00:38;7.23;;;3.93;;
5682;SDS011;2864;49.220;8.654;2023-02-28T02:03:08;4.90;;;3.70;;
5682;SDS011;2864;49.220;8.654;2023-02-28T02:05:37;3.83;;;3.43;;
5682;SDS011;2864;49.220;8.654;2023-02-28T02:08:10;4.93;;;3.50;;
5682;SDS011;2864;49.220;8.654;2023-02-28T02:10:41;8.00;;;3.67;;
5682;SDS011;2864;49.220;8.654;2023-02-28T02:18:36;4.53;;;4.07;;
5682;SDS011;2864;49.220;8.654;2023-02-28T02:21:05;4.57;;;3.80;;
5682;SDS011;2864;49.220;8.654;2023-02-28T02:31:25;5.23;;;4.13;;
5682;SDS011;2864;49.220;8.654;2023-02-28T02:36:45;5.03;;;4.13;;
5682;SDS011;2864;49.220;8.654;2023-02-28T02:42:01;5.30;;;3.90;;
5682;SDS011;2864;49.220;8.654;2023-02-28T02:47:28;4.50;;;3.83;;
5682;SDS011;2864;49.220;8.654;2023-02-28T02:49:55;5.37;;;4.27;;
5682;SDS011;2864;49.220;8.654;2023-02-28T02:52:23;6.63;;;4.40;;
5682;SDS011;2864;49.220;8.654;2023-02-28T02:54:50;5.70;;;4.00;;
5682;SDS011;2864;49.220;8.654;2023-02-28T02:57:22;5.20;;;3.57;;
5682;SDS011;2864;49.220;8.654;2023-02-28T02:59:52;6.30;;;4.10;;
5682;SDS011;2864;49.220;8.654;2023-02-28T03:02:18;5.07;;;4.10;;
5682;SDS011;2864;49.220;8.654;2023-02-28T03:04:46;5.17;;;4.20;;
5682;SDS011;2864;49.220;8.654;2023-02-28T03:07:14;6.50;;;4.73;;
5682;SDS011;2864;49.220;8.654;2023-02-28T03:09:40;8.47;;;4.87;;
5682;SDS011;2864;49.220;8.654;2023-02-28T03:12:08;9.97;;;5.93;;
5682;SDS011;2864;49.220;8.654;2023-02-28T03:20:04;9.03;;;4.50;;
5682;SDS011;2864;49.220;8.654;2023-02-28T03:28:02;5.33;;;4.20;;
5682;SDS011;2864;49.220;8.654;2023-02-28T03:30:33;5.80;;;4.50;;
5682;SDS011;2864;49.220;8.654;2023-02-28T03:33:06;5.93;;;4.10;;
5682;SDS011;2864;49.220;8.654;2023-02-28T03:35:34;6.73;;;4.40;;
5682;SDS011;2864;49.220;8.654;2023-02-28T03:38:35;5.77;;;4.40;;
5682;SDS011;2864;49.220;8.654;2023-02-28T03:40:56;6.37;;;4.67;;
5682;SDS011;2864;49.220;8.654;2023-02-28T03:43:26;7.37;;;4.57;;
5682;SDS011;2864;49.220;8.654;2023-02-28T03:45:53;6.10;;;4.70;;
5682;SDS011;2864;49.220;8.654;2023-02-28T03:48:21;8.00;;;4.80;;
5682;SDS011;2864;49.220;8.654;2023-02-28T03:50:49;5.10;;;4.27;;
5682;SDS011;2864;49.220;8.654;2023-02-28T03:55:45;6.93;;;4.60;;
5682;SDS011;2864;49.220;8.654;2023-02-28T03:58:27;4.83;;;4.30;;
5682;SDS011;2864;49.220;8.654;2023-02-28T04:00:58;5.73;;;4.50;;
5682;SDS011;2864;49.220;8.654;2023-02-28T04:03:25;8.40;;;5.17;;
5682;SDS011;2864;49.220;8.654;2023-02-28T04:05:52;6.63;;;5.00;;
5682;SDS011;2864;49.220;8.654;2023-02-28T04:08:18;5.23;;;4.53;;
5682;SDS011;2864;49.220;8.654;2023-02-28T04:10:45;7.23;;;5.23;;
5682;SDS011;2864;49.220;8.654;2023-02-28T04:13:19;6.13;;;4.90;;
5682;SDS011;2864;49.220;8.654;2023-02-28T04:15:45;6.47;;;4.87;;
5682;SDS011;2864;49.220;8.654;2023-02-28T04:18:11;6.03;;;5.10;;
5682;SDS011;2864;49.220;8.654;2023-02-28T04:20:37;6.80;;;5.03;;
5682;SDS011;2864;49.220;8.654;2023-02-28T04:23:03;5.97;;;4.90;;
5682;SDS011;2864;49.220;8.654;2023-02-28T04:25:29;8.03;;;5.10;;
5682;SDS011;2864;49.220;8.654;2023-02-28T04:27:55;6.43;;;5.20;;
5682;SDS011;2864;49.220;8.654;2023-02-28T04:30:21;6.30;;;4.77;;
5682;SDS011;2864;49.220;8.654;2023-02-28T04:32:47;7.70;;;5.20;;
5682;SDS011;2864;49.220;8.654;2023-02-28T04:35:13;5.67;;;4.70;;
5682;SDS011;2864;49.220;8.654;2023-02-28T04:37:39;7.77;;;5.50;;
5682;SDS011;2864;49.220;8.654;2023-02-28T04:40:05;8.23;;;5.47;;
5682;SDS011;2864;49.220;8.654;2023-02-28T04:42:31;7.70;;;5.20;;
5682;SDS011;2864;49.220;8.654;2023-02-28T04:45:01;5.53;;;4.23;;
5682;SDS011;2864;49.220;8.654;2023-02-28T04:47:26;7.57;;;4.80;;
5682;SDS011;2864;49.220;8.654;2023-02-28T04:49:52;7.60;;;5.33;;
5682;SDS011;2864;49.220;8.654;2023-02-28T04:52:18;6.93;;;5.10;;
5682;SDS011;2864;49.220;8.654;2023-02-28T04:54:44;6.73;;;4.77;;
5682;SDS011;2864;49.220;8.654;2023-02-28T04:57:10;8.07;;;4.73;;
5682;SDS011;2864;49.220;8.654;2023-02-28T04:59:36;6.20;;;4.73;;
5682;SDS011;2864;49.220;8.654;2023-02-28T05:02:03;6.97;;;5.33;;
5682;SDS011;2864;49.220;8.654;2023-02-28T05:04:32;6.13;;;4.97;;
5682;SDS011;2864;49.220;8.654;2023-02-28T05:07:00;9.00;;;5.53;;
5682;SDS011;2864;49.220;8.654;2023-02-28T05:09:26;9.03;;;5.80;;
5682;SDS011;2864;49.220;8.654;2023-02-28T05:11:53;6.87;;;5.37;;
5682;SDS011;2864;49.220;8.654;2023-02-28T05:14:19;7.63;;;5.50;;
5682;SDS011;2864;49.220;8.654;2023-02-28T05:16:45;7.23;;;5.03;;
5682;SDS011;2864;49.220;8.654;2023-02-28T05:19:11;6.47;;;5.37;;
5682;SDS011;2864;49.220;8.654;2023-02-28T05:21:38;8.53;;;5.20;;
5682;SDS011;2864;49.220;8.654;2023-02-28T05:24:13;6.97;;;5.03;;
5682;SDS011;2864;49.220;8.654;2023-02-28T05:26:40;7.43;;;5.20;;
5682;SDS011;2864;49.220;8.654;2023-02-28T05:29:07;8.57;;;5.10;;
5682;SDS011;2864;49.220;8.654;2023-02-28T05:31:33;6.67;;;5.37;;
5682;SDS011;2864;49.220;8.654;2023-02-28T05:33:59;5.90;;;4.80;;
5682;SDS011;2864;49.220;8.654;2023-02-28T05:36:25;7.40;;;4.97;;
5682;SDS011;2864;49.220;8.654;2023-02-28T05:38:51;7.40;;;5.00;;
5682;SDS011;2864;49.220;8.654;2023-02-28T05:41:18;7.10;;;4.70;;
5682;SDS011;2864;49.220;8.654;2023-02-28T05:43:44;6.63;;;5.20;;
5682;SDS011;2864;49.220;8.654;2023-02-28T05:46:11;6.57;;;4.97;;
5682;SDS011;2864;49.220;8.654;2023-02-28T05:48:37;6.93;;;5.47;;
5682;SDS011;2864;49.220;8.654;2023-02-28T05:51:04;8.70;;;5.80;;
5682;SDS011;2864;49.220;8.654;2023-02-28T05:53:30;7.30;;;4.90;;
5682;SDS011;2864;49.220;8.654;2023-02-28T05:55:57;10.30;;;5.53;;
5682;SDS011;2864;49.220;8.654;2023-02-28T05:58:23;5.10;;;4.43;;
5682;SDS011;2864;49.220;8.654;2023-02-28T06:00:50;8.20;;;5.43;;
5682;SDS011;2864;49.220;8.654;2023-02-28T06:03:16;8.47;;;5.07;;
5682;SDS011;2864;49.220;8.654;2023-02-28T06:05:42;8.50;;;5.67;;
5682;SDS011;2864;49.220;8.654;2023-02-28T06:08:08;7.13;;;5.23;;
5682;SDS011;2864;49.220;8.654;2023-02-28T06:10:34;6.17;;;4.60;;
5682;SDS011;2864;49.220;8.654;2023-02-28T06:13:01;6.97;;;5.40;;
5682;SDS011;2864;49.220;8.654;2023-02-28T06:15:30;7.60;;;4.87;;
5682;SDS011;2864;49.220;8.654;2023-02-28T06:17:56;6.53;;;5.10;;
5682;SDS011;2864;49.220;8.654;2023-02-28T06:20:22;8.03;;;5.20;;
5682;SDS011;2864;49.220;8.654;2023-02-28T06:22:48;9.53;;;5.70;;
5682;SDS011;2864;49.220;8.654;2023-02-28T06:25:15;6.47;;;5.43;;
5682;SDS011;2864;49.220;8.654;2023-02-28T06:27:41;10.67;;;6.57;;
5682;SDS011;2864;49.220;8.654;2023-02-28T06:30:08;8.53;;;5.40;;
5682;SDS011;2864;49.220;8.654;2023-02-28T06:32:36;7.17;;;5.43;;
5682;SDS011;2864;49.220;8.654;2023-02-28T06:35:02;9.13;;;5.07;;
5682;SDS011;2864;49.220;8.654;2023-02-28T06:37:30;8.97;;;5.67;;
5682;SDS011;2864;49.220;8.654;2023-02-28T06:39:56;10.00;;;5.33;;
5682;SDS011;2864;49.220;8.654;2023-02-28T06:42:22;7.53;;;5.70;;
5682;SDS011;2864;49.220;8.654;2023-02-28T06:44:54;7.47;;;5.47;;
5682;SDS011;2864;49.220;8.654;2023-02-28T06:47:20;11.20;;;5.90;;
5682;SDS011;2864;49.220;8.654;2023-02-28T06:49:46;7.67;;;5.40;;
5682;SDS011;2864;49.220;8.654;2023-02-28T06:52:12;8.80;;;6.27;;
5682;SDS011;2864;49.220;8.654;2023-02-28T06:54:38;5.80;;;4.80;;
5682;SDS011;2864;49.220;8.654;2023-02-28T06:57:04;6.40;;;5.60;;
5682;SDS011;2864;49.220;8.654;2023-02-28T06:59:30;5.77;;;4.87;;
5682;SDS011;2864;49.220;8.654;2023-02-28T07:01:56;6.53;;;5.50;;
5682;SDS011;2864;49.220;8.654;2023-02-28T07:04:22;9.17;;;6.63;;
5682;SDS011;2864;49.220;8.654;2023-02-28T07:06:48;7.20;;;5.80;;
5682;SDS011;2864;49.220;8.654;2023-02-28T07:09:14;9.07;;;6.00;;
5682;SDS011;2864;49.220;8.654;2023-02-28T07:11:40;8.37;;;5.47;;
5682;SDS011;2864;49.220;8.654;2023-02-28T07:14:08;7.63;;;5.27;;
5682;SDS011;2864;49.220;8.654;2023-02-28T07:16:34;8.90;;;5.97;;
5682;SDS011;2864;49.220;8.654;2023-02-28T07:19:00;6.97;;;5.53;;
5682;SDS011;2864;49.220;8.654;2023-02-28T07:21:26;7.97;;;5.80;;
5682;SDS011;2864;49.220;8.654;2023-02-28T07:23:52;40.50;;;18.07;;
5682;SDS011;2864;49.220;8.654;2023-02-28T07:26:19;14.37;;;8.53;;
5682;SDS011;2864;49.220;8.654;2023-02-28T07:28:46;13.20;;;7.23;;
5682;SDS011;2864;49.220;8.654;2023-02-28T07:31:13;13.30;;;7.37;;
5682;SDS011;2864;49.220;8.654;2023-02-28T07:33:39;7.50;;;6.07;;
5682;SDS011;2864;49.220;8.654;2023-02-28T07:36:06;10.20;;;6.10;;
5682;SDS011;2864;49.220;8.654;2023-02-28T07:38:37;6.40;;;5.23;;
5682;SDS011;2864;49.220;8.654;2023-02-28T07:41:03;7.37;;;5.80;;
5682;SDS011;2864;49.220;8.654;2023-02-28T07:43:29;9.87;;;6.40;;
5682;SDS011;2864;49.220;8.654;2023-02-28T07:45:55;8.53;;;5.30;;
5682;SDS011;2864;49.220;8.654;2023-02-28T07:48:26;7.27;;;5.73;;
5682;SDS011;2864;49.220;8.654;2023-02-28T07:50:55;7.70;;;5.53;;
5682;SDS011;2864;49.220;8.654;2023-02-28T07:53:22;8.27;;;5.60;;
5682;SDS011;2864;49.220;8.654;2023-02-28T07:55:48;10.00;;;5.93;;
5682;SDS011;2864;49.220;8.654;2023-02-28T07:58:14;9.33;;;5.97;;
5682;SDS011;2864;49.220;8.654;2023-02-28T08:00:40;9.27;;;6.37;;
5682;SDS011;2864;49.220;8.654;2023-02-28T08:03:05;8.43;;;5.60;;
5682;SDS011;2864;49.220;8.654;2023-02-28T08:05:31;12.13;;;6.03;;
5682;SDS011;2864;49.220;8.654;2023-02-28T08:07:57;8.57;;;5.60;;
5682;SDS011;2864;49.220;8.654;2023-02-28T08:10:23;9.77;;;5.60;;
5682;SDS011;2864;49.220;8.654;2023-02-28T08:12:49;8.60;;;6.23;;
5682;SDS011;2864;49.220;8.654;2023-02-28T08:15:15;10.30;;;6.10;;
5682;SDS011;2864;49.220;8.654;2023-02-28T08:17:41;7.33;;;5.67;;
5682;SDS011;2864;49.220;8.654;2023-02-28T08:20:07;8.37;;;5.87;;
5682;SDS011;2864;49.220;8.654;2023-02-28T08:22:35;8.87;;;5.70;;
5682;SDS011;2864;49.220;8.654;2023-02-28T08:25:01;17.50;;;6.50;;
5682;SDS011;2864;49.220;8.654;2023-02-28T08:27:27;9.40;;;5.67;;
5682;SDS011;2864;49.220;8.654;2023-02-28T08:29:53;8.83;;;6.00;;
5682;SDS011;2864;49.220;8.654;2023-02-28T08:32:19;8.90;;;5.90;;
5682;SDS011;2864;49.220;8.654;2023-02-28T08:34:45;8.20;;;5.60;;
5682;SDS011;2864;49.220;8.654;2023-02-28T08:37:11;6.47;;;5.80;;
5682;SDS011;2864;49.220;8.654;2023-02-28T08:39:37;9.33;;;5.93;;
5682;SDS011;2864;49.220;8.654;2023-02-28T08:42:03;7.43;;;5.67;;
5682;SDS011;2864;49.220;8.654;2023-02-28T08:44:29;9.60;;;5.73;;
5682;SDS011;2864;49.220;8.654;2023-02-28T08:46:55;6.77;;;5.77;;
5682;SDS011;2864;49.220;8.654;2023-02-28T08:49:21;7.93;;;5.70;;
5682;SDS011;2864;49.220;8.654;2023-02-28T08:51:47;7.30;;;5.40;;
5682;SDS011;2864;49.220;8.654;2023-02-28T08:54:13;10.83;;;6.23;;
5682;SDS011;2864;49.220;8.654;2023-02-28T08:56:44;9.17;;;5.53;;
5682;SDS011;2864;49.220;8.654;2023-02-28T08:59:11;7.47;;;5.57;;
5682;SDS011;2864;49.220;8.654;2023-02-28T09:01:37;7.37;;;5.53;;
5682;SDS011;2864;49.220;8.654;2023-02-28T09:04:03;6.97;;;5.40;;
5682;SDS011;2864;49.220;8.654;2023-02-28T09:06:31;7.13;;;5.57;;
5682;SDS011;2864;49.220;8.654;2023-02-28T09:08:58;6.33;;;5.63;;
5682;SDS011;2864;49.220;8.654;2023-02-28T09:11:26;8.00;;;5.90;;
5682;SDS011;2864;49.220;8.654;2023-02-28T09:13:52;8.37;;;5.40;;
5682;SDS011;2864;49.220;8.654;2023-02-28T09:16:18;6.70;;;5.60;;
5682;SDS011;2864;49.220;8.654;2023-02-28T09:18:44;8.33;;;5.93;;
5682;SDS011;2864;49.220;8.654;2023-02-28T09:21:14;12.13;;;6.60;;
5682;SDS011;2864;49.220;8.654;2023-02-28T09:23:42;8.17;;;5.73;;
5682;SDS011;2864;49.220;8.654;2023-02-28T09:26:11;9.53;;;6.30;;
5682;SDS011;2864;49.220;8.654;2023-02-28T09:28:38;8.90;;;5.40;;
5682;SDS011;2864;49.220;8.654;2023-02-28T09:31:04;9.07;;;6.10;;
5682;SDS011;2864;49.220;8.654;2023-02-28T09:33:30;9.13;;;5.70;;
5682;SDS011;2864;49.220;8.654;2023-02-28T09:35:58;8.80;;;5.80;;
5682;SDS011;2864;49.220;8.654;2023-02-28T09:38:25;7.93;;;5.60;;
5682;SDS011;2864;49.220;8.654;2023-02-28T09:40:54;9.07;;;6.50;;
5682;SDS011;2864;49.220;8.654;2023-02-28T09:43:22;13.90;;;7.23;;
5682;SDS011;2864;49.220;8.654;2023-02-28T09:48:56;7.17;;;5.77;;
5682;SDS011;2864;49.220;8.654;2023-02-28T09:53:57;10.63;;;6.30;;
5682;SDS011;2864;49.220;8.654;2023-02-28T09:56:25;12.50;;;6.80;;
5682;SDS011;2864;49.220;8.654;2023-02-28T09:58:55;7.97;;;5.80;;
5682;SDS011;2864;49.220;8.654;2023-02-28T10:06:42;7.47;;;5.70;;
5682;SDS011;2864;49.220;8.654;2023-02-28T10:09:11;8.80;;;5.97;;
5682;SDS011;2864;49.220;8.654;2023-02-28T10:11:39;8.07;;;5.90;;
5682;SDS011;2864;49.220;8.654;2023-02-28T10:16:42;10.07;;;7.07;;
5682;SDS011;2864;49.220;8.654;2023-02-28T10:19:15;9.83;;;6.43;;
5682;SDS011;2864;49.220;8.654;2023-02-28T10:21:47;9.33;;;5.53;;
5682;SDS011;2864;49.220;8.654;2023-02-28T10:27:28;6.77;;;5.23;;
5682;SDS011;2864;49.220;8.654;2023-02-28T10:29:55;9.43;;;5.80;;
5682;SDS011;2864;49.220;8.654;2023-02-28T10:35:34;9.43;;;6.10;;
5682;SDS011;2864;49.220;8.654;2023-02-28T10:37:38;9.73;;;6.97;;
5682;SDS011;2864;49.220;8.654;2023-02-28T10:40:06;9.07;;;6.30;;
5682;SDS011;2864;49.220;8.654;2023-02-28T10:42:33;12.63;;;6.80;;
5682;SDS011;2864;49.220;8.654;2023-02-28T10:47:29;8.50;;;6.60;;
5682;SDS011;2864;49.220;8.654;2023-02-28T10:49:55;11.27;;;7.10;;
5682;SDS011;2864;49.220;8.654;2023-02-28T10:52:38;11.93;;;6.70;;
5682;SDS011;2864;49.220;8.654;2023-02-28T10:55:21;8.87;;;6.03;;
5682;SDS011;2864;49.220;8.654;2023-02-28T10:57:48;9.53;;;6.60;;
5682;SDS011;2864;49.220;8.654;2023-02-28T11:00:16;9.52;;;7.30;;
5682;SDS011;2864;49.220;8.654;2023-02-28T11:02:42;11.00;;;7.13;;
5682;SDS011;2864;49.220;8.654;2023-02-28T11:07:54;9.03;;;6.77;;
5682;SDS011;2864;49.220;8.654;2023-02-28T11:10:23;8.90;;;6.10;;
5682;SDS011;2864;49.220;8.654;2023-02-28T11:12:50;9.23;;;6.83;;
5682;SDS011;2864;49.220;8.654;2023-02-28T11:15:30;8.00;;;6.50;;
5682;SDS011;2864;49.220;8.654;2023-02-28T11:20:31;7.90;;;6.13;;
5682;SDS011;2864;49.220;8.654;2023-02-28T11:22:58;15.40;;;8.67;;
5682;SDS011;2864;49.220;8.654;2023-02-28T11:27:54;18.73;;;9.83;;
5682;SDS011;2864;49.220;8.654;2023-02-28T11:30:35;8.97;;;6.00;;
5682;SDS011;2864;49.220;8.654;2023-02-28T11:35:50;8.50;;;6.50;;
5682;SDS011;2864;49.220;8.654;2023-02-28T11:38:16;10.73;;;6.80;;
5682;SDS011;2864;49.220;8.654;2023-02-28T11:40:47;12.97;;;7.60;;
5682;SDS011;2864;49.220;8.654;2023-02-28T11:46:24;13.20;;;7.57;;
5682;SDS011;2864;49.220;8.654;2023-02-28T11:51:49;12.70;;;8.67;;
5682;SDS011;2864;49.220;8.654;2023-02-28T11:54:28;12.57;;;8.10;;
5682;SDS011;2864;49.220;8.654;2023-02-28T11:57:00;18.87;;;10.83;;
5682;SDS011;2864;49.220;8.654;2023-02-28T12:02:18;9.43;;;7.33;;
5682;SDS011;2864;49.220;8.654;2023-02-28T12:07:32;9.27;;;7.13;;
5682;SDS011;2864;49.220;8.654;2023-02-28T12:10:13;10.03;;;7.37;;
5682;SDS011;2864;49.220;8.654;2023-02-28T12:12:54;8.27;;;6.70;;
5682;SDS011;2864;49.220;8.654;2023-02-28T12:15:35;7.97;;;6.37;;
5682;SDS011;2864;49.220;8.654;2023-02-28T12:26:19;9.83;;;7.13;;
5682;SDS011;2864;49.220;8.654;2023-02-28T12:28:49;9.93;;;7.07;;
5682;SDS011;2864;49.220;8.654;2023-02-28T12:31:33;12.23;;;7.57;;
5682;SDS011;2864;49.220;8.654;2023-02-28T12:34:02;9.53;;;7.67;;
5682;SDS011;2864;49.220;8.654;2023-02-28T12:36:28;9.73;;;6.93;;
5682;SDS011;2864;49.220;8.654;2023-02-28T12:39:08;8.87;;;7.70;;
5682;SDS011;2864;49.220;8.654;2023-02-28T12:41:46;9.80;;;7.07;;
5682;SDS011;2864;49.220;8.654;2023-02-28T12:44:21;12.63;;;7.80;;
5682;SDS011;2864;49.220;8.654;2023-02-28T12:46:51;9.27;;;7.37;;
5682;SDS011;2864;49.220;8.654;2023-02-28T12:49:23;13.53;;;8.53;;
5682;SDS011;2864;49.220;8.654;2023-02-28T12:51:52;8.93;;;7.13;;
5682;SDS011;2864;49.220;8.654;2023-02-28T12:59:54;9.83;;;7.23;;
5682;SDS011;2864;49.220;8.654;2023-02-28T13:10:18;9.03;;;6.50;;
5682;SDS011;2864;49.220;8.654;2023-02-28T13:12:51;9.13;;;7.00;;
5682;SDS011;2864;49.220;8.654;2023-02-28T13:15:27;15.77;;;9.97;;
5682;SDS011;2864;49.220;8.654;2023-02-28T13:17:58;20.73;;;11.50;;
5682;SDS011;2864;49.220;8.654;2023-02-28T13:20:25;15.10;;;10.10;;
5682;SDS011;2864;49.220;8.654;2023-02-28T13:22:52;9.23;;;7.27;;
5682;SDS011;2864;49.220;8.654;2023-02-28T13:28:10;11.23;;;8.23;;
5682;SDS011;2864;49.220;8.654;2023-02-28T13:36:00;7.20;;;6.47;;
5682;SDS011;2864;49.220;8.654;2023-02-28T13:38:33;7.97;;;6.90;;
5682;SDS011;2864;49.220;8.654;2023-02-28T13:44:03;7.43;;;6.33;;
5682;SDS011;2864;49.220;8.654;2023-02-28T13:46:30;8.10;;;6.60;;
5682;SDS011;2864;49.220;8.654;2023-02-28T13:49:17;10.13;;;7.40;;
5682;SDS011;2864;49.220;8.654;2023-02-28T13:51:44;7.47;;;6.63;;
5682;SDS011;2864;49.220;8.654;2023-02-28T13:57:01;13.43;;;9.90;;
5682;SDS011;2864;49.220;8.654;2023-02-28T13:59:36;7.83;;;7.03;;
5682;SDS011;2864;49.220;8.654;2023-02-28T14:04:50;8.43;;;6.83;;
5682;SDS011;2864;49.220;8.654;2023-02-28T14:07:19;8.50;;;7.23;;
5682;SDS011;2864;49.220;8.654;2023-02-28T14:09:48;11.60;;;7.57;;
5682;SDS011;2864;49.220;8.654;2023-02-28T14:15:01;9.70;;;7.70;;
5682;SDS011;2864;49.220;8.654;2023-02-28T14:17:27;9.67;;;7.63;;
5682;SDS011;2864;49.220;8.654;2023-02-28T14:19:53;9.60;;;7.70;;
5682;SDS011;2864;49.220;8.654;2023-02-28T14:30:07;9.03;;;7.73;;
5682;SDS011;2864;49.220;8.654;2023-02-28T14:38:20;8.47;;;6.73;;
5682;SDS011;2864;49.220;8.654;2023-02-28T14:40:47;10.13;;;7.77;;
5682;SDS011;2864;49.220;8.654;2023-02-28T14:43:22;9.83;;;7.47;;
5682;SDS011;2864;49.220;8.654;2023-02-28T14:45:54;9.27;;;7.27;;
5682;SDS011;2864;49.220;8.654;2023-02-28T14:48:21;8.33;;;6.83;;
5682;SDS011;2864;49.220;8.654;2023-02-28T14:50:49;11.30;;;7.77;;
5682;SDS011;2864;49.220;8.654;2023-02-28T14:53:18;7.97;;;6.93;;
5682;SDS011;2864;49.220;8.654;2023-02-28T14:55:45;7.87;;;7.03;;
5682;SDS011;2864;49.220;8.654;2023-02-28T15:00:48;9.87;;;7.40;;
5682;SDS011;2864;49.220;8.654;2023-02-28T15:03:19;11.90;;;8.20;;
5682;SDS011;2864;49.220;8.654;2023-02-28T15:05:53;11.10;;;7.87;;
5682;SDS011;2864;49.220;8.654;2023-02-28T15:08:19;10.37;;;7.80;;
5682;SDS011;2864;49.220;8.654;2023-02-28T15:11:07;9.07;;;7.33;;
5682;SDS011;2864;49.220;8.654;2023-02-28T15:16:12;8.27;;;7.00;;
5682;SDS011;2864;49.220;8.654;2023-02-28T15:21:11;8.40;;;7.57;;
5682;SDS011;2864;49.220;8.654;2023-02-28T15:23:38;9.97;;;8.03;;
5682;SDS011;2864;49.220;8.654;2023-02-28T15:26:05;9.90;;;7.63;;
5682;SDS011;2864;49.220;8.654;2023-02-28T15:28:31;8.47;;;7.57;;
5682;SDS011;2864;49.220;8.654;2023-02-28T15:31:01;9.63;;;7.83;;
5682;SDS011;2864;49.220;8.654;2023-02-28T15:33:31;8.70;;;7.50;;
5682;SDS011;2864;49.220;8.654;2023-02-28T15:36:14;10.73;;;7.97;;
5682;SDS011;2864;49.220;8.654;2023-02-28T15:38:42;10.10;;;8.23;;
5682;SDS011;2864;49.220;8.654;2023-02-28T15:41:25;12.80;;;10.83;;
5682;SDS011;2864;49.220;8.654;2023-02-28T15:46:44;9.57;;;8.40;;
5682;SDS011;2864;49.220;8.654;2023-02-28T15:49:17;18.43;;;12.30;;
5682;SDS011;2864;49.220;8.654;2023-02-28T15:51:45;11.17;;;9.03;;
5682;SDS011;2864;49.220;8.654;2023-02-28T15:54:19;10.67;;;8.63;;
5682;SDS011;2864;49.220;8.654;2023-02-28T15:56:51;9.27;;;7.27;;
5682;SDS011;2864;49.220;8.654;2023-02-28T15:59:19;11.13;;;8.03;;
5682;SDS011;2864;49.220;8.654;2023-02-28T16:02:13;7.70;;;7.00;;
5682;SDS011;2864;49.220;8.654;2023-02-28T16:07:21;9.50;;;8.50;;
5682;SDS011;2864;49.220;8.654;2023-02-28T16:09:50;9.37;;;7.93;;
5682;SDS011;2864;49.220;8.654;2023-02-28T16:12:17;10.27;;;7.97;;
5682;SDS011;2864;49.220;8.654;2023-02-28T16:14:44;10.87;;;8.53;;
5682;SDS011;2864;49.220;8.654;2023-02-28T16:17:17;12.43;;;8.43;;
5682;SDS011;2864;49.220;8.654;2023-02-28T16:19:45;10.93;;;8.10;;
5682;SDS011;2864;49.220;8.654;2023-02-28T16:22:11;11.40;;;8.80;;
5682;SDS011;2864;49.220;8.654;2023-02-28T16:24:37;12.70;;;8.73;;
5682;SDS011;2864;49.220;8.654;2023-02-28T16:27:04;10.83;;;9.00;;
5682;SDS011;2864;49.220;8.654;2023-02-28T16:29:31;11.63;;;8.73;;
5682;SDS011;2864;49.220;8.654;2023-02-28T16:31:58;11.97;;;8.77;;
5682;SDS011;2864;49.220;8.654;2023-02-28T16:34:25;11.90;;;8.57;;
5682;SDS011;2864;49.220;8.654;2023-02-28T16:36:51;12.23;;;8.67;;
5682;SDS011;2864;49.220;8.654;2023-02-28T16:39:17;11.53;;;7.40;;
5682;SDS011;2864;49.220;8.654;2023-02-28T16:41:45;10.23;;;7.73;;
5682;SDS011;2864;49.220;8.654;2023-02-28T16:44:27;9.73;;;7.50;;
5682;SDS011;2864;49.220;8.654;2023-02-28T16:46:54;17.17;;;10.87;;
5682;SDS011;2864;49.220;8.654;2023-02-28T16:49:20;15.57;;;10.37;;
5682;SDS011;2864;49.220;8.654;2023-02-28T16:51:46;36.20;;;15.10;;
5682;SDS011;2864;49.220;8.654;2023-02-28T16:54:12;21.40;;;12.90;;
5682;SDS011;2864;49.220;8.654;2023-02-28T16:56:39;11.93;;;8.90;;
5682;SDS011;2864;49.220;8.654;2023-02-28T16:59:07;12.73;;;10.03;;
5682;SDS011;2864;49.220;8.654;2023-02-28T17:01:34;17.53;;;12.73;;
5682;SDS011;2864;49.220;8.654;2023-02-28T17:04:00;15.83;;;10.43;;
5682;SDS011;2864;49.220;8.654;2023-02-28T17:06:26;16.17;;;10.13;;
5682;SDS011;2864;49.220;8.654;2023-02-28T17:08:53;14.00;;;9.73;;
5682;SDS011;2864;49.220;8.654;2023-02-28T17:11:20;24.37;;;17.00;;
5682;SDS011;2864;49.220;8.654;2023-02-28T17:13:46;25.70;;;18.47;;
5682;SDS011;2864;49.220;8.654;2023-02-28T17:16:26;21.73;;;13.37;;
5682;SDS011;2864;49.220;8.654;2023-02-28T17:18:53;25.27;;;13.30;;
5682;SDS011;2864;49.220;8.654;2023-02-28T17:21:19;29.57;;;17.57;;
5682;SDS011;2864;49.220;8.654;2023-02-28T17:23:45;33.40;;;15.93;;
5682;SDS011;2864;49.220;8.654;2023-02-28T17:26:13;22.17;;;12.37;;
5682;SDS011;2864;49.220;8.654;2023-02-28T17:28:39;16.80;;;11.27;;
5682;SDS011;2864;49.220;8.654;2023-02-28T17:31:05;21.63;;;13.50;;
5682;SDS011;2864;49.220;8.654;2023-02-28T17:33:31;29.07;;;16.67;;
5682;SDS011;2864;49.220;8.654;2023-02-28T17:35:57;22.90;;;14.63;;
5682;SDS011;2864;49.220;8.654;2023-02-28T17:38:23;15.73;;;9.60;;
5682;SDS011;2864;49.220;8.654;2023-02-28T17:40:49;15.93;;;11.10;;
5682;SDS011;2864;49.220;8.654;2023-02-28T17:43:15;18.87;;;11.83;;